createdAt,value
2018-09-01T00:01:26.819Z,18.73
2018-09-01T00:03:55.314Z,19.10
2018-09-01T00:06:23.772Z,19.90
2018-09-01T00:08:52.218Z,19.00
2018-09-01T00:11:20.694Z,19.23
2018-09-01T00:13:49.121Z,20.80
2018-09-01T00:16:17.555Z,19.43
2018-09-01T00:18:46.048Z,20.50
2018-09-01T00:21:14.550Z,20.23
2018-09-01T00:23:42.970Z,22.10
2018-09-01T00:26:11.415Z,21.63
2018-09-01T00:28:39.844Z,21.60
2018-09-01T00:31:08.269Z,21.10
2018-09-01T00:33:36.716Z,20.30
2018-09-01T00:36:05.523Z,21.53
2018-09-01T00:38:39.365Z,21.50
2018-09-01T00:41:07.838Z,22.63
2018-09-01T00:43:36.370Z,20.90
2018-09-01T00:46:05.023Z,22.27
2018-09-01T00:48:33.830Z,23.17
2018-09-01T00:51:02.511Z,24.17
2018-09-01T00:53:31.221Z,23.60
2018-09-01T00:55:59.839Z,22.27
2018-09-01T00:58:28.534Z,22.53
2018-09-01T01:00:59.076Z,22.93
2018-09-01T01:03:27.764Z,23.50
2018-09-01T01:05:56.329Z,23.47
2018-09-01T01:08:25.001Z,20.30
2018-09-01T01:10:53.895Z,20.43
2018-09-01T01:13:22.721Z,20.70
2018-09-01T01:15:51.279Z,18.87
2018-09-01T01:18:19.957Z,18.90
2018-09-01T01:20:48.663Z,20.30
2018-09-01T01:23:17.321Z,20.33
2018-09-01T01:25:46.138Z,23.23
2018-09-01T01:28:14.912Z,22.13
2018-09-01T01:30:43.509Z,22.87
2018-09-01T01:33:12.127Z,23.43
2018-09-01T01:35:40.653Z,24.20
2018-09-01T01:38:09.247Z,23.87
2018-09-01T01:40:37.777Z,23.70
2018-09-01T01:43:06.465Z,22.93
2018-09-01T01:45:35.035Z,23.10
2018-09-01T01:48:03.537Z,24.53
2018-09-01T01:50:32.158Z,21.80
2018-09-01T01:53:00.767Z,21.67
2018-09-01T01:55:29.284Z,20.93
2018-09-01T01:57:57.981Z,20.70
2018-09-01T02:00:26.617Z,20.53
2018-09-01T02:02:55.269Z,20.63
2018-09-01T02:05:30.303Z,22.37
2018-09-01T02:07:58.934Z,22.83
2018-09-01T02:10:34.090Z,23.20
2018-09-01T02:13:02.852Z,21.30
2018-09-01T02:15:31.462Z,20.27
2018-09-01T02:18:00.000Z,21.03
2018-09-01T02:20:28.584Z,20.87
2018-09-01T02:22:57.328Z,21.17
2018-09-01T02:25:25.904Z,20.13
2018-09-01T02:27:54.720Z,22.70
2018-09-01T02:30:23.358Z,21.60
2018-09-01T02:32:52.191Z,20.83
2018-09-01T02:35:20.794Z,22.43
2018-09-01T02:37:49.319Z,23.03
2018-09-01T02:40:18.082Z,21.73
2018-09-01T02:42:47.090Z,21.47
2018-09-01T02:45:15.532Z,21.33
2018-09-01T02:47:43.976Z,21.17
2018-09-01T02:50:12.458Z,21.63
2018-09-01T02:52:40.879Z,21.63
2018-09-01T02:55:09.345Z,20.97
2018-09-01T02:57:37.780Z,22.20
2018-09-01T03:00:11.711Z,21.93
2018-09-01T03:02:44.989Z,23.80
2018-09-01T03:05:15.023Z,24.43
2018-09-01T03:07:43.466Z,23.27
2018-09-01T03:10:11.925Z,23.27
2018-09-01T03:12:40.349Z,22.87
2018-09-01T03:15:08.859Z,23.83
2018-09-01T03:17:37.295Z,23.77
2018-09-01T03:20:05.918Z,24.90
2018-09-01T03:22:34.333Z,23.73
2018-09-01T03:25:02.785Z,26.40
2018-09-01T03:27:31.229Z,25.13
2018-09-01T03:29:59.707Z,23.30
2018-09-01T03:32:28.155Z,23.00
2018-09-01T03:34:56.591Z,24.37
2018-09-01T03:37:25.021Z,26.40
2018-09-01T03:39:53.480Z,27.70
2018-09-01T03:42:21.969Z,27.57
2018-09-01T03:44:50.420Z,23.70
2018-09-01T03:47:18.860Z,22.87
2018-09-01T03:49:47.338Z,23.30
2018-09-01T03:52:15.750Z,22.77
2018-09-01T03:54:44.220Z,23.40
2018-09-01T03:57:12.666Z,24.10
2018-09-01T03:59:41.097Z,27.20
2018-09-01T04:02:09.555Z,27.33
2018-09-01T04:04:37.982Z,27.30
2018-09-01T04:07:06.465Z,26.60
2018-09-01T04:09:34.906Z,30.57
2018-09-01T04:12:03.348Z,27.40
2018-09-01T04:14:31.866Z,28.37
2018-09-01T04:17:00.358Z,26.90
2018-09-01T04:19:28.934Z,27.17
2018-09-01T04:21:57.410Z,30.97
2018-09-01T04:24:25.850Z,30.70
2018-09-01T04:26:54.416Z,28.40
2018-09-01T04:29:22.894Z,26.87
2018-09-01T04:31:51.391Z,27.63
2018-09-01T04:34:19.881Z,25.60
2018-09-01T04:36:48.336Z,24.93
2018-09-01T04:39:16.820Z,22.90
2018-09-01T04:41:45.304Z,22.93
2018-09-01T04:44:13.783Z,28.03
2018-09-01T04:46:42.317Z,28.30
2018-09-01T04:49:10.740Z,28.83
2018-09-01T04:51:39.218Z,31.40
2018-09-01T04:54:07.674Z,27.27
2018-09-01T04:56:36.114Z,29.73
2018-09-01T04:59:04.586Z,26.87
2018-09-01T05:01:33.044Z,27.10
2018-09-01T05:04:01.980Z,27.47
2018-09-01T05:06:31.398Z,28.03
2018-09-01T05:09:02.453Z,25.57
2018-09-01T05:11:31.132Z,26.33
2018-09-01T05:13:59.567Z,24.27
2018-09-01T05:16:28.099Z,25.60
2018-09-01T05:18:56.577Z,25.73
2018-09-01T05:21:25.853Z,26.03
2018-09-01T05:23:54.312Z,25.07
2018-09-01T05:26:22.813Z,27.40
2018-09-01T05:28:51.261Z,26.53
2018-09-01T05:31:19.706Z,28.07
2018-09-01T05:33:48.239Z,26.77
2018-09-01T05:36:16.711Z,24.63
2018-09-01T05:38:45.171Z,27.17
2018-09-01T05:41:13.633Z,27.93
2018-09-01T05:43:42.176Z,27.70
2018-09-01T05:46:10.607Z,28.37
2018-09-01T05:48:39.077Z,26.40
2018-09-01T05:51:07.572Z,26.37
2018-09-01T05:53:36.045Z,28.37
2018-09-01T05:56:04.525Z,27.83
2018-09-01T05:58:33.079Z,27.97
2018-09-01T06:01:01.585Z,30.07
2018-09-01T06:03:30.142Z,30.53
2018-09-01T06:05:58.651Z,31.93
2018-09-01T06:08:27.110Z,32.70
2018-09-01T06:10:55.617Z,31.67
2018-09-01T06:13:24.067Z,30.67
2018-09-01T06:15:52.626Z,30.47
2018-09-01T06:18:21.132Z,32.67
2018-09-01T06:20:49.737Z,29.57
2018-09-01T06:23:18.230Z,30.63
2018-09-01T06:25:46.764Z,29.63
2018-09-01T06:28:34.000Z,29.17
2018-09-01T06:31:02.554Z,29.90
2018-09-01T06:33:31.099Z,32.17
2018-09-01T06:35:59.572Z,31.97
2018-09-01T06:38:28.160Z,29.60
2018-09-01T06:40:56.698Z,28.60
2018-09-01T06:43:25.209Z,30.03
2018-09-01T06:45:53.708Z,29.23
2018-09-01T06:48:22.171Z,29.53
2018-09-01T06:50:50.772Z,27.97
2018-09-01T06:53:19.314Z,26.50
2018-09-01T06:55:47.814Z,29.83
2018-09-01T06:58:16.307Z,27.33
2018-09-01T07:00:44.807Z,26.07
2018-09-01T07:03:13.323Z,24.97
2018-09-01T07:05:41.783Z,23.57
2018-09-01T07:08:10.295Z,22.03
2018-09-01T07:10:38.859Z,21.73
2018-09-01T07:13:07.371Z,21.23
2018-09-01T07:15:36.731Z,20.10
2018-09-01T07:18:05.361Z,20.37
2018-09-01T07:20:33.906Z,21.30
2018-09-01T07:23:02.411Z,20.70
2018-09-01T07:25:30.957Z,20.33
2018-09-01T07:27:59.467Z,21.03
2018-09-01T07:30:28.117Z,20.20
2018-09-01T07:32:57.261Z,18.43
2018-09-01T07:35:25.773Z,18.27
2018-09-01T07:37:54.321Z,17.03
2018-09-01T07:40:22.931Z,13.93
2018-09-01T07:42:51.499Z,15.03
2018-09-01T07:45:20.081Z,13.73
2018-09-01T07:47:48.631Z,14.53
2018-09-01T07:50:17.212Z,13.70
2018-09-01T07:52:45.765Z,13.60
2018-09-01T07:55:14.279Z,13.93
2018-09-01T07:57:42.849Z,13.53
2018-09-01T08:00:11.443Z,13.53
2018-09-01T08:02:40.083Z,12.83
2018-09-01T08:05:08.977Z,12.73
2018-09-01T08:07:37.757Z,11.17
2018-09-01T08:10:06.962Z,11.33
2018-09-01T08:12:35.459Z,12.03
2018-09-01T08:15:04.004Z,12.43
2018-09-01T08:17:32.477Z,10.63
2018-09-01T08:20:01.162Z,10.43
2018-09-01T08:22:29.708Z,10.93
2018-09-01T08:24:58.214Z,11.60
2018-09-01T08:27:26.806Z,11.90
2018-09-01T08:29:55.350Z,11.53
2018-09-01T08:32:23.866Z,11.03
2018-09-01T08:34:52.436Z,11.10
2018-09-01T08:37:20.910Z,10.43
2018-09-01T08:39:49.470Z,9.63
2018-09-01T08:42:17.983Z,9.80
2018-09-01T08:44:46.483Z,9.20
2018-09-01T08:47:14.996Z,9.87
2018-09-01T08:49:43.523Z,8.80
2018-09-01T08:52:11.986Z,8.40
2018-09-01T08:54:40.761Z,9.73
2018-09-01T08:57:09.236Z,8.97
2018-09-01T08:59:37.674Z,8.93
2018-09-01T09:02:06.154Z,8.57
2018-09-01T09:04:34.824Z,9.10
2018-09-01T09:07:03.324Z,8.40
2018-09-01T09:09:31.902Z,8.53
2018-09-01T09:12:00.349Z,8.23
2018-09-01T09:14:28.839Z,8.10
2018-09-01T09:16:57.367Z,7.77
2018-09-01T09:19:25.856Z,8.40
2018-09-01T09:21:54.337Z,7.30
2018-09-01T09:24:22.817Z,7.60
2018-09-01T09:26:51.268Z,8.13
2018-09-01T09:29:19.717Z,6.93
2018-09-01T09:31:48.149Z,7.37
2018-09-01T09:34:16.578Z,6.67
2018-09-01T09:36:45.033Z,7.10
2018-09-01T09:39:13.511Z,6.83
2018-09-01T09:41:42.003Z,6.40
2018-09-01T09:44:10.468Z,4.90
2018-09-01T09:46:38.936Z,6.23
2018-09-01T09:49:07.486Z,7.07
2018-09-01T09:51:35.979Z,7.20
2018-09-01T09:54:04.432Z,7.13
2018-09-01T09:56:32.920Z,7.97
2018-09-01T09:59:01.414Z,7.60
2018-09-01T10:01:38.657Z,7.37
2018-09-01T10:04:07.668Z,6.33
2018-09-01T10:06:36.732Z,6.60
2018-09-01T10:09:07.596Z,5.80
2018-09-01T10:11:36.136Z,6.43
2018-09-01T10:14:04.624Z,6.13
2018-09-01T10:16:33.060Z,5.70
2018-09-01T10:19:01.520Z,5.43
2018-09-01T10:21:29.945Z,5.97
2018-09-01T10:23:58.408Z,5.70
2018-09-01T10:26:26.891Z,4.93
2018-09-01T10:28:55.368Z,4.93
2018-09-01T10:31:23.845Z,4.80
2018-09-01T10:33:52.337Z,4.77
2018-09-01T10:36:20.788Z,4.53
2018-09-01T10:38:49.244Z,4.60
2018-09-01T10:41:17.769Z,4.10
2018-09-01T10:43:46.223Z,4.60
2018-09-01T10:46:14.773Z,3.53
2018-09-01T10:48:43.825Z,2.50
2018-09-01T10:51:12.355Z,4.97
2018-09-01T10:53:40.887Z,2.93
2018-09-01T10:56:09.455Z,3.67
2018-09-01T10:58:37.953Z,4.60
2018-09-01T11:01:06.583Z,4.53
2018-09-01T11:03:35.211Z,4.15
2018-09-01T11:06:03.657Z,4.03
2018-09-01T11:08:32.140Z,4.27
2018-09-01T11:11:00.641Z,5.03
2018-09-01T11:13:29.118Z,5.25
2018-09-01T11:15:57.556Z,5.12
2018-09-01T11:18:26.022Z,4.77
2018-09-01T11:20:54.773Z,5.03
2018-09-01T11:23:23.170Z,5.10
2018-09-01T11:25:51.720Z,5.07
2018-09-01T11:28:20.184Z,4.28
2018-09-01T11:30:48.650Z,4.70
2018-09-01T11:33:17.120Z,5.62
2018-09-01T11:35:45.656Z,6.37
2018-09-01T11:38:14.122Z,7.70
2018-09-01T11:40:42.591Z,9.90
2018-09-01T11:43:11.219Z,5.27
2018-09-01T11:45:39.625Z,5.15
2018-09-01T11:48:08.086Z,5.33
2018-09-01T11:50:36.580Z,6.47
2018-09-01T11:53:05.108Z,5.70
2018-09-01T11:55:33.567Z,4.95
2018-09-01T11:58:02.031Z,5.40
2018-09-01T12:00:38.814Z,4.37
2018-09-01T12:03:07.432Z,4.90
2018-09-01T12:05:35.940Z,4.87
2018-09-01T12:08:04.475Z,5.40
2018-09-01T12:10:32.939Z,4.95
2018-09-01T12:13:01.412Z,5.42
2018-09-01T12:15:29.885Z,4.33
2018-09-01T12:17:58.438Z,4.58
2018-09-01T12:20:26.955Z,4.22
2018-09-01T12:22:55.380Z,4.13
2018-09-01T12:25:23.865Z,4.40
2018-09-01T12:27:52.382Z,4.27
2018-09-01T12:30:23.708Z,4.80
2018-09-01T12:32:52.229Z,4.90
2018-09-01T12:35:20.836Z,3.55
2018-09-01T12:37:49.226Z,4.10
2018-09-01T12:40:17.699Z,3.87
2018-09-01T12:42:46.160Z,3.47
2018-09-01T12:45:14.631Z,3.60
2018-09-01T12:47:43.040Z,3.60
2018-09-01T12:50:11.475Z,3.67
2018-09-01T12:52:39.968Z,3.67
2018-09-01T12:55:08.456Z,3.37
2018-09-01T12:57:36.940Z,3.30
2018-09-01T13:00:05.750Z,4.28
2018-09-01T13:02:34.273Z,3.87
2018-09-01T13:05:02.731Z,3.30
2018-09-01T13:07:31.162Z,4.10
2018-09-01T13:09:59.689Z,4.10
2018-09-01T13:12:28.127Z,4.05
2018-09-01T13:14:56.575Z,4.12
2018-09-01T13:17:25.003Z,4.70
2018-09-01T13:19:53.453Z,4.40
2018-09-01T13:22:21.903Z,3.42
2018-09-01T13:24:50.388Z,3.98
2018-09-01T13:27:18.827Z,4.00
2018-09-01T13:29:47.284Z,3.87
2018-09-01T13:32:15.750Z,3.50
2018-09-01T13:34:44.236Z,4.35
2018-09-01T13:37:12.692Z,4.65
2018-09-01T13:39:41.129Z,4.62
2018-09-01T13:42:09.579Z,4.58
2018-09-01T13:44:38.073Z,3.87
2018-09-01T13:47:06.562Z,3.92
2018-09-01T13:49:35.065Z,4.22
2018-09-01T13:52:03.540Z,4.47
2018-09-01T13:54:31.991Z,4.30
2018-09-01T13:57:00.452Z,4.00
2018-09-01T13:59:28.991Z,4.10
2018-09-01T14:01:57.441Z,4.30
2018-09-01T14:04:25.911Z,3.85
2018-09-01T14:06:54.404Z,3.65
2018-09-01T14:09:22.877Z,3.50
2018-09-01T14:11:51.333Z,3.58
2018-09-01T14:14:19.832Z,4.15
2018-09-01T14:16:48.283Z,3.85
2018-09-01T14:19:16.763Z,4.05
2018-09-01T14:21:45.349Z,3.90
2018-09-01T14:24:13.905Z,4.45
2018-09-01T14:26:42.445Z,4.30
2018-09-01T14:29:10.887Z,4.05
2018-09-01T14:31:39.363Z,3.95
2018-09-01T14:34:07.892Z,4.72
2018-09-01T14:36:36.562Z,5.12
2018-09-01T14:39:07.299Z,4.80
2018-09-01T14:41:35.773Z,5.53
2018-09-01T14:44:04.297Z,5.45
2018-09-01T14:46:32.822Z,5.33
2018-09-01T14:49:01.393Z,4.97
2018-09-01T14:51:29.917Z,5.22
2018-09-01T14:53:58.393Z,4.87
2018-09-01T14:56:26.929Z,5.42
2018-09-01T14:58:55.411Z,5.50
2018-09-01T15:01:23.896Z,5.33
2018-09-01T15:06:27.094Z,5.43
2018-09-01T15:08:55.553Z,5.67
2018-09-01T15:11:24.019Z,5.83
2018-09-01T15:13:52.486Z,5.70
2018-09-01T15:16:20.990Z,5.60
2018-09-01T15:18:49.470Z,5.70
2018-09-01T15:21:18.032Z,5.70
2018-09-01T15:23:46.476Z,6.00
2018-09-01T15:26:14.996Z,6.10
2018-09-01T15:28:43.432Z,6.07
2018-09-01T15:31:11.902Z,5.43
2018-09-01T15:33:40.373Z,5.13
2018-09-01T15:36:08.844Z,5.33
2018-09-01T15:38:37.351Z,5.60
2018-09-01T15:41:05.876Z,5.17
2018-09-01T15:43:34.369Z,5.47
2018-09-01T15:46:02.848Z,4.77
2018-09-01T15:48:31.301Z,5.00
2018-09-01T15:50:59.850Z,4.57
2018-09-01T15:53:29.015Z,5.70
2018-09-01T15:55:58.129Z,5.73
2018-09-01T15:58:26.618Z,5.90
2018-09-01T16:00:55.104Z,5.40
2018-09-01T16:03:23.653Z,6.10
2018-09-01T16:05:52.195Z,6.23
2018-09-01T16:08:20.750Z,5.87
2018-09-01T16:10:49.272Z,5.70
2018-09-01T16:13:17.805Z,5.53
2018-09-01T16:15:46.336Z,4.67
2018-09-01T16:18:14.863Z,6.30
2018-09-01T16:20:43.347Z,6.50
2018-09-01T16:23:11.959Z,6.10
2018-09-01T16:25:40.501Z,5.50
2018-09-01T16:28:09.125Z,5.50
2018-09-01T16:30:37.629Z,5.53
2018-09-01T16:33:06.514Z,6.83
2018-09-01T16:35:35.041Z,6.57
2018-09-01T16:38:03.586Z,7.17
2018-09-01T16:40:32.138Z,6.70
2018-09-01T16:43:00.675Z,6.77
2018-09-01T16:45:29.170Z,7.50
2018-09-01T16:47:57.716Z,7.80
2018-09-01T16:50:26.258Z,9.00
2018-09-01T16:52:54.802Z,8.77
2018-09-01T16:55:23.290Z,9.40
2018-09-01T16:57:51.791Z,11.90
2018-09-01T17:00:20.310Z,13.37
2018-09-01T17:02:48.914Z,14.40
2018-09-01T17:05:17.446Z,15.90
2018-09-01T17:07:45.966Z,16.43
2018-09-01T17:10:14.511Z,17.30
2018-09-01T17:12:42.992Z,17.77
2018-09-01T17:15:11.578Z,17.37
2018-09-01T17:17:40.074Z,18.33
2018-09-01T17:20:08.652Z,18.83
2018-09-01T17:22:37.354Z,18.13
2018-09-01T17:25:06.443Z,17.97
2018-09-01T17:27:35.049Z,18.63
2018-09-01T17:30:03.584Z,17.83
2018-09-01T17:32:32.094Z,18.10
2018-09-01T17:35:00.629Z,18.73
2018-09-01T17:37:29.158Z,18.37
2018-09-01T17:39:57.815Z,17.53
2018-09-01T17:42:26.405Z,18.40
2018-09-01T17:44:54.889Z,18.60
2018-09-01T17:47:23.464Z,18.30
2018-09-01T17:49:51.912Z,17.60
2018-09-01T17:52:20.419Z,17.83
2018-09-01T17:54:48.987Z,19.27
2018-09-01T17:57:17.553Z,18.50
2018-09-01T17:59:46.033Z,18.70
2018-09-01T18:02:14.603Z,18.37
2018-09-01T18:04:43.115Z,17.60
2018-09-01T18:07:11.639Z,16.57
2018-09-01T18:09:40.125Z,16.67
2018-09-01T18:12:08.650Z,17.77
2018-09-01T18:14:37.274Z,17.43
2018-09-01T18:17:05.805Z,17.90
2018-09-01T18:19:34.331Z,17.93
2018-09-01T18:22:02.926Z,16.60
2018-09-01T18:24:31.527Z,18.00
2018-09-01T18:27:00.124Z,18.37
2018-09-01T18:29:28.909Z,18.90
2018-09-01T18:31:58.784Z,19.97
2018-09-01T18:34:33.700Z,20.37
2018-09-01T18:37:02.439Z,21.40
2018-09-01T18:39:31.090Z,21.03
2018-09-01T18:42:02.368Z,20.70
2018-09-01T18:44:31.092Z,20.43
2018-09-01T18:46:59.770Z,20.10
2018-09-01T18:49:35.019Z,20.10
2018-09-01T18:52:03.766Z,21.20
2018-09-01T18:54:32.514Z,20.60
2018-09-01T18:57:01.104Z,20.67
2018-09-01T18:59:31.008Z,21.03
2018-09-01T19:01:59.630Z,21.63
2018-09-01T19:04:28.279Z,20.87
2018-09-01T19:06:58.706Z,21.53
2018-09-01T19:09:29.030Z,22.00
2018-09-01T19:11:57.489Z,23.13
2018-09-01T19:14:25.925Z,21.37
2018-09-01T19:16:54.371Z,22.27
2018-09-01T19:19:22.812Z,21.20
2018-09-01T19:21:51.258Z,22.77
2018-09-01T19:24:19.954Z,22.63
2018-09-01T19:26:48.493Z,22.70
2018-09-01T19:29:16.968Z,22.73
2018-09-01T19:31:45.525Z,22.30
2018-09-01T19:34:13.965Z,24.17
2018-09-01T19:36:42.709Z,24.63
2018-09-01T19:39:12.328Z,22.80
2018-09-01T19:41:41.538Z,24.10
2018-09-01T19:44:09.975Z,23.77
2018-09-01T19:46:38.429Z,24.30
2018-09-01T19:49:07.173Z,24.07
2018-09-01T19:51:35.733Z,23.20
2018-09-01T19:54:04.231Z,24.40
2018-09-01T19:56:32.721Z,23.20
2018-09-01T19:59:01.246Z,23.70
2018-09-01T20:01:29.736Z,24.87
2018-09-01T20:03:58.196Z,24.73
2018-09-01T20:06:26.717Z,24.83
2018-09-01T20:08:55.198Z,24.93
2018-09-01T20:11:23.710Z,23.57
2018-09-01T20:13:52.179Z,23.33
2018-09-01T20:16:20.669Z,22.40
2018-09-01T20:18:49.114Z,23.13
2018-09-01T20:21:17.557Z,23.03
2018-09-01T20:23:46.051Z,22.10
2018-09-01T20:26:14.584Z,22.33
2018-09-01T20:28:43.023Z,22.03
2018-09-01T20:31:11.551Z,21.33
2018-09-01T20:33:39.999Z,21.67
2018-09-01T20:36:13.771Z,21.37
2018-09-01T20:38:42.282Z,20.97
2018-09-01T20:41:10.777Z,20.47
2018-09-01T20:43:39.291Z,20.90
2018-09-01T20:46:07.946Z,21.07
2018-09-01T20:48:36.398Z,19.27
2018-09-01T20:51:04.875Z,19.23
2018-09-01T20:53:33.436Z,20.30
2018-09-01T20:56:01.900Z,20.40
2018-09-01T20:58:30.370Z,20.67
2018-09-01T21:00:58.876Z,20.40
2018-09-01T21:03:27.332Z,21.23
2018-09-01T21:05:55.800Z,20.80
2018-09-01T21:08:24.268Z,20.83
2018-09-01T21:10:52.716Z,21.80
2018-09-01T21:13:21.170Z,21.47
2018-09-01T21:15:49.690Z,22.30
2018-09-01T21:18:18.205Z,22.40
2018-09-01T21:20:46.659Z,23.10
2018-09-01T21:23:15.114Z,22.67
2018-09-01T21:25:43.603Z,23.23
2018-09-01T21:28:12.055Z,23.73
2018-09-01T21:30:40.543Z,23.33
2018-09-01T21:33:09.007Z,23.60
2018-09-01T21:35:37.506Z,26.27
2018-09-01T21:38:05.957Z,25.40
2018-09-01T21:40:34.469Z,23.90
2018-09-01T21:43:02.999Z,26.27
2018-09-01T21:45:31.473Z,27.17
2018-09-01T21:47:59.936Z,27.27
2018-09-01T21:50:28.405Z,26.90
2018-09-01T21:52:56.885Z,27.87
2018-09-01T21:55:25.381Z,28.27
2018-09-01T21:57:53.883Z,28.00
2018-09-01T22:00:22.353Z,28.83
2018-09-01T22:02:50.834Z,29.90
2018-09-01T22:05:19.706Z,30.03
2018-09-01T22:07:48.185Z,30.07
2018-09-01T22:10:16.700Z,30.93
2018-09-01T22:12:45.166Z,30.47
2018-09-01T22:15:13.691Z,31.40
2018-09-01T22:17:42.151Z,31.67
2018-09-01T22:20:10.614Z,31.63
2018-09-01T22:22:39.105Z,31.10
2018-09-01T22:25:07.596Z,31.53
2018-09-01T22:27:36.052Z,33.33
2018-09-01T22:30:04.637Z,31.77
2018-09-01T22:32:33.109Z,33.53
2018-09-01T22:35:01.581Z,31.23
2018-09-01T22:37:30.052Z,32.80
2018-09-01T22:39:58.540Z,34.03
2018-09-01T22:42:27.018Z,33.33
2018-09-01T22:44:55.497Z,34.53
2018-09-01T22:47:26.377Z,35.40
2018-09-01T22:49:54.841Z,35.27
2018-09-01T22:52:23.607Z,34.30
2018-09-01T22:54:52.181Z,36.73
2018-09-01T22:57:21.113Z,37.30
2018-09-01T22:59:49.832Z,36.73
2018-09-01T23:02:18.329Z,36.07
2018-09-01T23:04:46.747Z,33.97
2018-09-01T23:07:15.365Z,36.07
2018-09-01T23:09:43.885Z,33.30
2018-09-01T23:12:12.334Z,34.93
2018-09-01T23:14:40.812Z,37.67
2018-09-01T23:17:09.298Z,35.90
2018-09-01T23:19:37.772Z,37.73
2018-09-01T23:22:06.283Z,35.53
2018-09-01T23:24:34.755Z,38.30
2018-09-01T23:27:03.218Z,38.27
2018-09-01T23:29:31.634Z,36.63
2018-09-01T23:32:00.134Z,36.23
2018-09-01T23:34:28.565Z,37.20
2018-09-01T23:36:57.001Z,37.33
2018-09-01T23:39:25.457Z,37.40
2018-09-01T23:41:53.977Z,37.37
2018-09-01T23:44:22.462Z,38.13
2018-09-01T23:46:50.919Z,40.70
2018-09-01T23:49:19.380Z,38.37
2018-09-01T23:51:47.898Z,40.07
2018-09-01T23:54:16.331Z,39.90
2018-09-01T23:56:44.786Z,40.33
2018-09-01T23:59:13.258Z,41.07
